sensor_id;sensor_type;location;lat;lon;timestamp;temperature;humidity
22416;DHT22;12204;50.600;4.608;2023-11-21T00:02:56;22.10;81.20
22416;DHT22;12204;50.600;4.608;2023-11-21T00:08:01;22.10;81.00
22416;DHT22;12204;50.600;4.608;2023-11-21T00:13:05;22.10;81.00
22416;DHT22;12204;50.600;4.608;2023-11-21T00:18:09;22.10;80.80
22416;DHT22;12204;50.600;4.608;2023-11-21T00:23:14;22.20;80.80
22416;DHT22;12204;50.600;4.608;2023-11-21T00:28:18;22.20;80.70
22416;DHT22;12204;50.600;4.608;2023-11-21T00:33:22;22.20;80.80
22416;DHT22;12204;50.600;4.608;2023-11-21T00:38:28;22.20;80.90
22416;DHT22;12204;50.600;4.608;2023-11-21T00:43:33;22.20;80.80
22416;DHT22;12204;50.600;4.608;2023-11-21T00:48:36;22.20;80.90
22416;DHT22;12204;50.600;4.608;2023-11-21T00:53:41;22.20;81.00
22416;DHT22;12204;50.600;4.608;2023-11-21T00:58:45;22.10;80.90
22416;DHT22;12204;50.600;4.608;2023-11-21T01:03:52;22.10;80.90
22416;DHT22;12204;50.600;4.608;2023-11-21T01:08:57;22.10;80.90
22416;DHT22;12204;50.600;4.608;2023-11-21T01:14:01;22.10;80.90
22416;DHT22;12204;50.600;4.608;2023-11-21T01:19:05;22.10;81.10
22416;DHT22;12204;50.600;4.608;2023-11-21T01:24:11;22.10;81.40
22416;DHT22;12204;50.600;4.608;2023-11-21T01:29:14;22.10;81.30
22416;DHT22;12204;50.600;4.608;2023-11-21T01:34:18;22.10;81.80
22416;DHT22;12204;50.600;4.608;2023-11-21T01:39:24;22.00;82.00
22416;DHT22;12204;50.600;4.608;2023-11-21T01:44:29;22.00;82.10
22416;DHT22;12204;50.600;4.608;2023-11-21T01:49:32;22.00;82.10
22416;DHT22;12204;50.600;4.608;2023-11-21T01:54:37;22.00;82.30
22416;DHT22;12204;50.600;4.608;2023-11-21T01:59:41;22.00;82.50
22416;DHT22;12204;50.600;4.608;2023-11-21T02:04:46;21.90;82.70
22416;DHT22;12204;50.600;4.608;2023-11-21T02:09:51;21.90;83.00
22416;DHT22;12204;50.600;4.608;2023-11-21T02:14:54;21.90;83.70
22416;DHT22;12204;50.600;4.608;2023-11-21T02:19:58;21.90;82.90
22416;DHT22;12204;50.600;4.608;2023-11-21T02:25:04;21.90;82.80
22416;DHT22;12204;50.600;4.608;2023-11-21T02:30:10;21.90;82.60
22416;DHT22;12204;50.600;4.608;2023-11-21T02:35:15;21.90;82.60
22416;DHT22;12204;50.600;4.608;2023-11-21T02:40:20;21.90;82.60
22416;DHT22;12204;50.600;4.608;2023-11-21T02:45:26;21.90;82.50
22416;DHT22;12204;50.600;4.608;2023-11-21T02:50:30;21.90;82.70
22416;DHT22;12204;50.600;4.608;2023-11-21T02:55:35;21.90;82.60
22416;DHT22;12204;50.600;4.608;2023-11-21T03:00:39;21.90;82.80
22416;DHT22;12204;50.600;4.608;2023-11-21T03:05:43;21.90;82.70
22416;DHT22;12204;50.600;4.608;2023-11-21T03:10:48;21.90;82.50
22416;DHT22;12204;50.600;4.608;2023-11-21T03:15:52;21.90;82.30
22416;DHT22;12204;50.600;4.608;2023-11-21T03:20:55;21.80;82.40
22416;DHT22;12204;50.600;4.608;2023-11-21T03:26:00;21.80;82.30
22416;DHT22;12204;50.600;4.608;2023-11-21T03:31:05;21.80;82.50
22416;DHT22;12204;50.600;4.608;2023-11-21T03:36:11;21.90;82.60
22416;DHT22;12204;50.600;4.608;2023-11-21T03:41:15;21.90;82.50
22416;DHT22;12204;50.600;4.608;2023-11-21T03:46:19;22.00;82.50
22416;DHT22;12204;50.600;4.608;2023-11-21T03:51:22;22.10;82.00
22416;DHT22;12204;50.600;4.608;2023-11-21T03:56:28;22.20;81.70
22416;DHT22;12204;50.600;4.608;2023-11-21T04:01:31;22.30;81.30
22416;DHT22;12204;50.600;4.608;2023-11-21T04:06:35;22.40;80.80
22416;DHT22;12204;50.600;4.608;2023-11-21T04:11:41;22.50;80.40
22416;DHT22;12204;50.600;4.608;2023-11-21T04:16:45;22.60;80.10
22416;DHT22;12204;50.600;4.608;2023-11-21T04:21:49;22.70;79.90
22416;DHT22;12204;50.600;4.608;2023-11-21T04:26:54;22.70;79.60
22416;DHT22;12204;50.600;4.608;2023-11-21T04:31:58;22.80;79.30
22416;DHT22;12204;50.600;4.608;2023-11-21T04:37:01;22.80;79.00
22416;DHT22;12204;50.600;4.608;2023-11-21T04:42:09;22.80;78.80
22416;DHT22;12204;50.600;4.608;2023-11-21T04:47:14;22.90;78.80
22416;DHT22;12204;50.600;4.608;2023-11-21T04:52:18;22.90;78.70
22416;DHT22;12204;50.600;4.608;2023-11-21T04:57:23;22.90;78.60
22416;DHT22;12204;50.600;4.608;2023-11-21T05:02:26;22.90;78.50
22416;DHT22;12204;50.600;4.608;2023-11-21T05:07:36;22.80;78.50
22416;DHT22;12204;50.600;4.608;2023-11-21T05:12:42;22.80;78.50
22416;DHT22;12204;50.600;4.608;2023-11-21T05:17:47;22.80;78.50
22416;DHT22;12204;50.600;4.608;2023-11-21T05:22:52;22.80;78.60
22416;DHT22;12204;50.600;4.608;2023-11-21T05:27:56;22.80;78.60
22416;DHT22;12204;50.600;4.608;2023-11-21T05:33:03;22.80;78.70
22416;DHT22;12204;50.600;4.608;2023-11-21T05:38:06;22.80;78.80
22416;DHT22;12204;50.600;4.608;2023-11-21T05:43:11;22.70;78.80
22416;DHT22;12204;50.600;4.608;2023-11-21T05:48:14;22.70;79.40
22416;DHT22;12204;50.600;4.608;2023-11-21T05:53:18;22.70;79.00
22416;DHT22;12204;50.600;4.608;2023-11-21T05:58:23;22.60;79.10
22416;DHT22;12204;50.600;4.608;2023-11-21T06:03:27;22.60;79.20
22416;DHT22;12204;50.600;4.608;2023-11-21T06:08:30;22.60;79.80
22416;DHT22;12204;50.600;4.608;2023-11-21T06:13:35;22.50;79.90
22416;DHT22;12204;50.600;4.608;2023-11-21T06:18:39;22.50;79.70
22416;DHT22;12204;50.600;4.608;2023-11-21T06:23:43;22.50;79.70
22416;DHT22;12204;50.600;4.608;2023-11-21T06:28:48;22.50;79.70
22416;DHT22;12204;50.600;4.608;2023-11-21T06:33:53;22.40;79.70
22416;DHT22;12204;50.600;4.608;2023-11-21T06:38:56;22.40;79.80
22416;DHT22;12204;50.600;4.608;2023-11-21T06:44:01;22.40;80.00
22416;DHT22;12204;50.600;4.608;2023-11-21T06:49:06;22.40;80.20
22416;DHT22;12204;50.600;4.608;2023-11-21T06:54:10;22.30;80.30
22416;DHT22;12204;50.600;4.608;2023-11-21T06:59:14;22.30;80.10
22416;DHT22;12204;50.600;4.608;2023-11-21T07:04:18;22.30;80.20
22416;DHT22;12204;50.600;4.608;2023-11-21T07:09:22;22.30;80.10
22416;DHT22;12204;50.600;4.608;2023-11-21T07:14:29;22.20;80.00
22416;DHT22;12204;50.600;4.608;2023-11-21T07:19:32;22.20;80.00
22416;DHT22;12204;50.600;4.608;2023-11-21T07:24:37;22.20;80.00
22416;DHT22;12204;50.600;4.608;2023-11-21T07:29:41;22.20;79.20
22416;DHT22;12204;50.600;4.608;2023-11-21T07:34:45;22.10;77.50
22416;DHT22;12204;50.600;4.608;2023-11-21T07:39:50;22.10;77.90
22416;DHT22;12204;50.600;4.608;2023-11-21T07:44:59;22.00;77.60
22416;DHT22;12204;50.600;4.608;2023-11-21T07:50:05;22.00;78.40
22416;DHT22;12204;50.600;4.608;2023-11-21T07:55:10;22.00;78.90
22416;DHT22;12204;50.600;4.608;2023-11-21T08:00:18;22.00;79.20
22416;DHT22;12204;50.600;4.608;2023-11-21T08:05:23;22.00;79.40
22416;DHT22;12204;50.600;4.608;2023-11-21T08:10:38;22.00;79.50
22416;DHT22;12204;50.600;4.608;2023-11-21T08:15:43;22.00;79.60
22416;DHT22;12204;50.600;4.608;2023-11-21T08:20:48;21.90;79.50
22416;DHT22;12204;50.600;4.608;2023-11-21T08:25:53;21.90;79.80
22416;DHT22;12204;50.600;4.608;2023-11-21T08:30:58;21.90;79.80
22416;DHT22;12204;50.600;4.608;2023-11-21T08:36:07;21.90;79.80
22416;DHT22;12204;50.600;4.608;2023-11-21T08:41:12;21.90;79.90
22416;DHT22;12204;50.600;4.608;2023-11-21T08:46:18;21.90;79.90
22416;DHT22;12204;50.600;4.608;2023-11-21T08:51:22;21.90;79.80
22416;DHT22;12204;50.600;4.608;2023-11-21T08:56:27;21.80;79.80
22416;DHT22;12204;50.600;4.608;2023-11-21T09:01:32;21.80;79.80
22416;DHT22;12204;50.600;4.608;2023-11-21T09:06:36;21.80;79.80
22416;DHT22;12204;50.600;4.608;2023-11-21T09:11:39;21.80;79.90
22416;DHT22;12204;50.600;4.608;2023-11-21T09:16:44;21.80;79.90
22416;DHT22;12204;50.600;4.608;2023-11-21T09:21:48;21.70;79.90
22416;DHT22;12204;50.600;4.608;2023-11-21T09:26:52;21.70;79.70
22416;DHT22;12204;50.600;4.608;2023-11-21T09:31:57;21.70;79.80
22416;DHT22;12204;50.600;4.608;2023-11-21T09:37:01;21.70;79.80
22416;DHT22;12204;50.600;4.608;2023-11-21T09:42:10;21.60;79.80
22416;DHT22;12204;50.600;4.608;2023-11-21T09:47:19;21.60;79.80
22416;DHT22;12204;50.600;4.608;2023-11-21T09:52:25;21.70;79.90
22416;DHT22;12204;50.600;4.608;2023-11-21T09:57:30;21.70;80.00
22416;DHT22;12204;50.600;4.608;2023-11-21T10:02:36;21.70;80.00
22416;DHT22;12204;50.600;4.608;2023-11-21T10:07:41;21.70;80.10
22416;DHT22;12204;50.600;4.608;2023-11-21T10:12:49;21.70;80.10
22416;DHT22;12204;50.600;4.608;2023-11-21T10:17:56;21.60;80.00
22416;DHT22;12204;50.600;4.608;2023-11-21T10:23:00;21.60;80.10
22416;DHT22;12204;50.600;4.608;2023-11-21T10:28:05;21.60;80.00
22416;DHT22;12204;50.600;4.608;2023-11-21T10:33:10;21.60;80.70
22416;DHT22;12204;50.600;4.608;2023-11-21T10:38:14;21.60;80.00
22416;DHT22;12204;50.600;4.608;2023-11-21T10:43:18;21.60;79.90
22416;DHT22;12204;50.600;4.608;2023-11-21T10:48:23;21.60;80.00
22416;DHT22;12204;50.600;4.608;2023-11-21T10:53:28;21.50;79.90
22416;DHT22;12204;50.600;4.608;2023-11-21T10:58:33;21.50;79.90
22416;DHT22;12204;50.600;4.608;2023-11-21T11:03:39;21.50;79.80
22416;DHT22;12204;50.600;4.608;2023-11-21T11:08:44;21.50;79.80
22416;DHT22;12204;50.600;4.608;2023-11-21T11:13:48;21.50;79.80
22416;DHT22;12204;50.600;4.608;2023-11-21T11:18:53;21.50;79.70
22416;DHT22;12204;50.600;4.608;2023-11-21T11:24:11;21.50;80.40
22416;DHT22;12204;50.600;4.608;2023-11-21T11:29:35;21.50;79.70
22416;DHT22;12204;50.600;4.608;2023-11-21T11:34:56;21.50;79.70
22416;DHT22;12204;50.600;4.608;2023-11-21T11:40:06;21.50;79.90
22416;DHT22;12204;50.600;4.608;2023-11-21T11:45:18;21.50;79.90
22416;DHT22;12204;50.600;4.608;2023-11-21T11:50:23;21.50;80.20
22416;DHT22;12204;50.600;4.608;2023-11-21T11:55:28;21.50;80.50
22416;DHT22;12204;50.600;4.608;2023-11-21T12:00:34;21.50;81.30
22416;DHT22;12204;50.600;4.608;2023-11-21T12:05:43;21.50;80.40
22416;DHT22;12204;50.600;4.608;2023-11-21T12:10:51;21.50;80.40
22416;DHT22;12204;50.600;4.608;2023-11-21T12:15:56;21.50;80.60
22416;DHT22;12204;50.600;4.608;2023-11-21T12:21:01;21.50;80.80
22416;DHT22;12204;50.600;4.608;2023-11-21T12:26:05;21.50;80.80
22416;DHT22;12204;50.600;4.608;2023-11-21T12:31:10;21.50;80.80
22416;DHT22;12204;50.600;4.608;2023-11-21T12:36:24;21.50;80.90
22416;DHT22;12204;50.600;4.608;2023-11-21T12:41:28;21.50;80.90
22416;DHT22;12204;50.600;4.608;2023-11-21T12:46:32;21.50;80.90
22416;DHT22;12204;50.600;4.608;2023-11-21T12:51:38;21.50;81.00
22416;DHT22;12204;50.600;4.608;2023-11-21T12:56:45;21.50;80.90
22416;DHT22;12204;50.600;4.608;2023-11-21T13:01:50;21.50;80.90
22416;DHT22;12204;50.600;4.608;2023-11-21T13:07:03;21.50;80.90
22416;DHT22;12204;50.600;4.608;2023-11-21T13:12:14;21.40;80.80
22416;DHT22;12204;50.600;4.608;2023-11-21T13:17:19;21.40;80.70
22416;DHT22;12204;50.600;4.608;2023-11-21T13:22:27;21.50;80.80
22416;DHT22;12204;50.600;4.608;2023-11-21T13:27:31;21.40;80.70
22416;DHT22;12204;50.600;4.608;2023-11-21T13:32:35;21.50;80.70
22416;DHT22;12204;50.600;4.608;2023-11-21T13:37:40;21.40;80.70
22416;DHT22;12204;50.600;4.608;2023-11-21T13:42:47;21.40;80.70
22416;DHT22;12204;50.600;4.608;2023-11-21T13:47:52;21.40;80.70
22416;DHT22;12204;50.600;4.608;2023-11-21T13:53:01;21.40;81.00
22416;DHT22;12204;50.600;4.608;2023-11-21T13:58:12;21.40;80.70
22416;DHT22;12204;50.600;4.608;2023-11-21T14:03:21;21.40;80.60
22416;DHT22;12204;50.600;4.608;2023-11-21T14:08:35;21.50;80.60
22416;DHT22;12204;50.600;4.608;2023-11-21T14:13:40;21.40;80.60
22416;DHT22;12204;50.600;4.608;2023-11-21T14:18:48;21.40;80.70
22416;DHT22;12204;50.600;4.608;2023-11-21T14:23:58;21.40;80.70
22416;DHT22;12204;50.600;4.608;2023-11-21T14:29:02;21.40;80.70
22416;DHT22;12204;50.600;4.608;2023-11-21T14:34:07;21.40;80.70
22416;DHT22;12204;50.600;4.608;2023-11-21T14:39:12;21.40;80.70
22416;DHT22;12204;50.600;4.608;2023-11-21T14:44:24;21.40;80.70
22416;DHT22;12204;50.600;4.608;2023-11-21T14:49:31;21.40;80.70
22416;DHT22;12204;50.600;4.608;2023-11-21T14:54:47;21.40;80.60
22416;DHT22;12204;50.600;4.608;2023-11-21T15:00:02;21.40;80.60
22416;DHT22;12204;50.600;4.608;2023-11-21T15:05:11;21.40;80.60
22416;DHT22;12204;50.600;4.608;2023-11-21T15:10:19;21.30;80.50
22416;DHT22;12204;50.600;4.608;2023-11-21T15:15:30;21.30;80.50
22416;DHT22;12204;50.600;4.608;2023-11-21T15:20:36;21.30;80.50
22416;DHT22;12204;50.600;4.608;2023-11-21T15:25:41;21.30;80.60
22416;DHT22;12204;50.600;4.608;2023-11-21T15:30:45;21.30;80.60
22416;DHT22;12204;50.600;4.608;2023-11-21T15:35:50;21.30;80.60
22416;DHT22;12204;50.600;4.608;2023-11-21T15:40:55;21.30;80.40
22416;DHT22;12204;50.600;4.608;2023-11-21T15:46:00;21.30;80.30
22416;DHT22;12204;50.600;4.608;2023-11-21T15:51:09;21.30;80.30
22416;DHT22;12204;50.600;4.608;2023-11-21T15:56:15;21.30;80.40
22416;DHT22;12204;50.600;4.608;2023-11-21T16:01:20;21.30;80.50
22416;DHT22;12204;50.600;4.608;2023-11-21T16:06:23;21.30;80.20
22416;DHT22;12204;50.600;4.608;2023-11-21T16:11:28;21.30;80.40
22416;DHT22;12204;50.600;4.608;2023-11-21T16:16:32;21.20;80.60
22416;DHT22;12204;50.600;4.608;2023-11-21T16:21:37;21.30;81.10
22416;DHT22;12204;50.600;4.608;2023-11-21T16:26:43;21.30;81.00
22416;DHT22;12204;50.600;4.608;2023-11-21T16:31:47;21.30;81.20
22416;DHT22;12204;50.600;4.608;2023-11-21T16:36:54;21.30;81.30
22416;DHT22;12204;50.600;4.608;2023-11-21T16:41:59;21.30;81.10
22416;DHT22;12204;50.600;4.608;2023-11-21T16:47:03;21.20;80.70
22416;DHT22;12204;50.600;4.608;2023-11-21T16:52:07;21.30;81.10
22416;DHT22;12204;50.600;4.608;2023-11-21T16:57:12;21.30;81.30
22416;DHT22;12204;50.600;4.608;2023-11-21T17:02:16;21.30;80.90
22416;DHT22;12204;50.600;4.608;2023-11-21T17:07:21;21.30;80.80
22416;DHT22;12204;50.600;4.608;2023-11-21T17:12:26;21.30;80.60
22416;DHT22;12204;50.600;4.608;2023-11-21T17:17:29;21.30;80.00
22416;DHT22;12204;50.600;4.608;2023-11-21T17:22:33;21.30;79.80
22416;DHT22;12204;50.600;4.608;2023-11-21T17:27:38;21.20;79.10
22416;DHT22;12204;50.600;4.608;2023-11-21T17:32:42;21.20;79.10
22416;DHT22;12204;50.600;4.608;2023-11-21T17:37:46;21.30;79.70
22416;DHT22;12204;50.600;4.608;2023-11-21T17:42:51;21.30;81.10
22416;DHT22;12204;50.600;4.608;2023-11-21T17:47:54;21.30;82.90
22416;DHT22;12204;50.600;4.608;2023-11-21T17:52:58;21.30;84.80
22416;DHT22;12204;50.600;4.608;2023-11-21T17:58:03;21.30;85.50
22416;DHT22;12204;50.600;4.608;2023-11-21T18:03:06;21.30;85.20
22416;DHT22;12204;50.600;4.608;2023-11-21T18:08:10;21.40;85.80
22416;DHT22;12204;50.600;4.608;2023-11-21T18:13:17;21.40;86.70
22416;DHT22;12204;50.600;4.608;2023-11-21T18:18:20;21.40;86.70
22416;DHT22;12204;50.600;4.608;2023-11-21T18:23:24;21.50;86.60
22416;DHT22;12204;50.600;4.608;2023-11-21T18:28:28;21.70;86.10
22416;DHT22;12204;50.600;4.608;2023-11-21T18:33:32;21.80;85.60
22416;DHT22;12204;50.600;4.608;2023-11-21T18:38:38;21.80;85.00
22416;DHT22;12204;50.600;4.608;2023-11-21T18:43:44;21.90;84.60
22416;DHT22;12204;50.600;4.608;2023-11-21T18:48:47;22.00;84.00
22416;DHT22;12204;50.600;4.608;2023-11-21T18:53:51;22.00;83.30
22416;DHT22;12204;50.600;4.608;2023-11-21T18:58:56;22.10;82.90
22416;DHT22;12204;50.600;4.608;2023-11-21T19:04:00;22.10;82.90
22416;DHT22;12204;50.600;4.608;2023-11-21T19:09:03;22.20;82.70
22416;DHT22;12204;50.600;4.608;2023-11-21T19:14:08;22.20;83.00
22416;DHT22;12204;50.600;4.608;2023-11-21T19:19:13;22.20;82.50
22416;DHT22;12204;50.600;4.608;2023-11-21T19:24:17;22.20;82.20
22416;DHT22;12204;50.600;4.608;2023-11-21T19:29:23;22.20;82.20
22416;DHT22;12204;50.600;4.608;2023-11-21T19:34:26;22.30;82.50
22416;DHT22;12204;50.600;4.608;2023-11-21T19:39:31;22.30;82.60
22416;DHT22;12204;50.600;4.608;2023-11-21T19:44:36;22.30;82.50
22416;DHT22;12204;50.600;4.608;2023-11-21T19:49:41;22.30;82.40
22416;DHT22;12204;50.600;4.608;2023-11-21T19:54:45;22.30;82.30
22416;DHT22;12204;50.600;4.608;2023-11-21T19:59:49;22.30;83.00
22416;DHT22;12204;50.600;4.608;2023-11-21T20:04:54;22.30;82.20
22416;DHT22;12204;50.600;4.608;2023-11-21T20:09:58;22.30;82.10
22416;DHT22;12204;50.600;4.608;2023-11-21T20:15:06;22.30;82.20
22416;DHT22;12204;50.600;4.608;2023-11-21T20:20:13;22.20;82.30
22416;DHT22;12204;50.600;4.608;2023-11-21T20:25:18;22.20;82.00
22416;DHT22;12204;50.600;4.608;2023-11-21T20:30:23;22.20;82.10
22416;DHT22;12204;50.600;4.608;2023-11-21T20:35:29;22.20;82.30
22416;DHT22;12204;50.600;4.608;2023-11-21T20:40:35;22.20;82.30
22416;DHT22;12204;50.600;4.608;2023-11-21T20:45:41;22.20;82.40
22416;DHT22;12204;50.600;4.608;2023-11-21T20:50:44;22.20;83.10
22416;DHT22;12204;50.600;4.608;2023-11-21T20:55:48;22.20;82.40
22416;DHT22;12204;50.600;4.608;2023-11-21T21:00:55;22.10;82.20
22416;DHT22;12204;50.600;4.608;2023-11-21T21:05:59;22.10;82.10
22416;DHT22;12204;50.600;4.608;2023-11-21T21:11:02;22.10;82.00
22416;DHT22;12204;50.600;4.608;2023-11-21T21:16:10;22.00;81.90
22416;DHT22;12204;50.600;4.608;2023-11-21T21:21:13;22.00;82.10
22416;DHT22;12204;50.600;4.608;2023-11-21T21:26:17;22.00;82.10
22416;DHT22;12204;50.600;4.608;2023-11-21T21:31:23;21.90;82.10
22416;DHT22;12204;50.600;4.608;2023-11-21T21:36:27;21.90;82.20
22416;DHT22;12204;50.600;4.608;2023-11-21T21:41:30;21.90;82.50
22416;DHT22;12204;50.600;4.608;2023-11-21T21:46:35;21.90;82.50
22416;DHT22;12204;50.600;4.608;2023-11-21T21:51:39;21.90;82.50
22416;DHT22;12204;50.600;4.608;2023-11-21T21:56:42;21.90;82.50
22416;DHT22;12204;50.600;4.608;2023-11-21T22:01:47;21.90;82.50
22416;DHT22;12204;50.600;4.608;2023-11-21T22:06:51;21.90;82.70
22416;DHT22;12204;50.600;4.608;2023-11-21T22:11:55;21.80;82.60
22416;DHT22;12204;50.600;4.608;2023-11-21T22:16:59;21.80;82.80
22416;DHT22;12204;50.600;4.608;2023-11-21T22:22:03;21.80;82.80
22416;DHT22;12204;50.600;4.608;2023-11-21T22:27:07;21.80;82.90
22416;DHT22;12204;50.600;4.608;2023-11-21T22:32:12;21.80;83.00
22416;DHT22;12204;50.600;4.608;2023-11-21T22:37:16;21.80;83.00
22416;DHT22;12204;50.600;4.608;2023-11-21T22:42:20;21.80;83.20
22416;DHT22;12204;50.600;4.608;2023-11-21T22:47:25;21.80;83.10
22416;DHT22;12204;50.600;4.608;2023-11-21T22:52:28;21.80;83.00
22416;DHT22;12204;50.600;4.608;2023-11-21T22:57:33;21.80;83.10
22416;DHT22;12204;50.600;4.608;2023-11-21T23:02:38;21.80;83.10
22416;DHT22;12204;50.600;4.608;2023-11-21T23:07:42;21.80;83.20
22416;DHT22;12204;50.600;4.608;2023-11-21T23:12:46;21.80;83.10
22416;DHT22;12204;50.600;4.608;2023-11-21T23:17:51;21.80;83.10
22416;DHT22;12204;50.600;4.608;2023-11-21T23:22:55;21.80;83.50
22416;DHT22;12204;50.600;4.608;2023-11-21T23:27:58;21.80;83.50
22416;DHT22;12204;50.600;4.608;2023-11-21T23:33:04;21.80;83.40
22416;DHT22;12204;50.600;4.608;2023-11-21T23:38:07;21.80;83.30
22416;DHT22;12204;50.600;4.608;2023-11-21T23:43:11;21.80;83.50
22416;DHT22;12204;50.600;4.608;2023-11-21T23:48:16;21.80;83.30
22416;DHT22;12204;50.600;4.608;2023-11-21T23:53:20;21.80;83.40
22416;DHT22;12204;50.600;4.608;2023-11-21T23:58:23;21.80;83.50
